createdAt,value
2022-09-05T00:00:27.275Z,2.78
2022-09-05T00:03:06.173Z,2.20
2022-09-05T00:06:02.217Z,2.58
2022-09-05T00:08:39.930Z,2.60
2022-09-05T00:11:41.427Z,2.40
2022-09-05T00:15:14.286Z,2.45
2022-09-05T00:17:23.856Z,2.78
2022-09-05T00:24:32.401Z,2.70
2022-09-05T00:24:33.057Z,2.25
2022-09-05T00:29:07.738Z,2.40
2022-09-05T00:31:55.844Z,2.50
2022-09-05T00:34:47.204Z,2.05
2022-09-05T00:37:32.188Z,2.30
2022-09-05T00:40:17.743Z,2.10
2022-09-05T00:42:51.433Z,2.17
2022-09-05T00:45:27.507Z,2.25
2022-09-05T00:48:01.553Z,2.55
2022-09-05T00:50:39.949Z,2.30
2022-09-05T00:53:17.576Z,2.63
2022-09-05T00:55:53.107Z,2.75
2022-09-05T00:58:42.579Z,2.25
2022-09-05T01:01:25.617Z,2.10
2022-09-05T01:04:01.676Z,2.28
2022-09-05T01:06:50.846Z,2.60
2022-09-05T01:09:31.883Z,2.65
2022-09-05T01:12:17.583Z,2.53
2022-09-05T01:15:02.911Z,2.50
2022-09-05T01:17:41.162Z,2.22
2022-09-05T01:20:25.761Z,2.50
2022-09-05T01:23:09.950Z,2.33
2022-09-05T01:25:54.959Z,2.45
2022-09-05T01:29:18.776Z,2.50
2022-09-05T01:31:27.234Z,2.80
2022-09-05T01:34:05.927Z,2.75
2022-09-05T01:36:43.633Z,2.70
2022-09-05T01:40:11.790Z,2.83
2022-09-05T01:42:18.322Z,2.70
2022-09-05T01:44:57.888Z,2.58
2022-09-05T01:47:45.778Z,2.50
2022-09-05T01:50:20.480Z,2.60
2022-09-05T01:53:06.315Z,2.70
2022-09-05T01:56:04.230Z,2.85
2022-09-05T01:58:45.939Z,3.10
2022-09-05T02:01:32.567Z,2.95
2022-09-05T02:04:24.665Z,3.05
2022-09-05T02:07:30.267Z,2.33
2022-09-05T02:10:09.713Z,2.80
2022-09-05T02:12:43.820Z,2.55
2022-09-05T02:15:30.454Z,3.33
2022-09-05T02:18:04.536Z,3.53
2022-09-05T02:23:24.610Z,2.03
2022-09-05T02:26:01.332Z,2.50
2022-09-05T02:28:36.556Z,2.45
2022-09-05T02:31:19.959Z,2.08
2022-09-05T02:34:02.376Z,2.60
2022-09-05T02:36:41.196Z,2.50
2022-09-05T02:45:07.123Z,2.47
2022-09-05T02:45:11.751Z,2.15
2022-09-05T02:45:25.583Z,1.98
2022-09-05T02:48:09.655Z,1.85
2022-09-05T02:57:28.215Z,2.67
2022-09-05T02:57:43.082Z,2.50
2022-09-05T02:57:46.255Z,2.15
2022-09-05T03:00:05.881Z,2.47
2022-09-05T03:02:41.755Z,2.38
2022-09-05T03:05:16.373Z,2.22
2022-09-05T03:07:57.488Z,2.35
2022-09-05T03:10:55.175Z,2.92
2022-09-05T03:13:38.251Z,2.75
2022-09-05T03:16:47.488Z,2.60
2022-09-05T03:19:51.703Z,2.58
2022-09-05T03:22:39.808Z,2.67
2022-09-05T03:25:25.077Z,3.00
2022-09-05T03:28:36.920Z,2.85
2022-09-05T03:31:22.393Z,2.97
2022-09-05T03:34:16.412Z,3.30
2022-09-05T03:36:54.379Z,3.47
2022-09-05T03:39:55.744Z,3.22
2022-09-05T03:45:36.914Z,3.10
2022-09-05T03:48:42.837Z,3.70
2022-09-05T03:57:08.512Z,2.88
2022-09-05T03:57:23.218Z,3.90
2022-09-05T03:57:42.197Z,3.10
2022-09-05T04:00:21.989Z,3.28
2022-09-05T04:08:06.669Z,3.67
2022-09-05T04:08:29.881Z,4.22
2022-09-05T04:09:09.732Z,3.38
2022-09-05T04:11:42.469Z,3.33
2022-09-05T04:14:15.258Z,3.50
2022-09-05T04:16:54.000Z,4.13
2022-09-05T04:19:28.110Z,3.60
2022-09-05T04:24:33.743Z,3.83
2022-09-05T04:27:32.718Z,3.65
2022-09-05T04:30:07.040Z,3.75
2022-09-05T04:33:00.156Z,3.60
2022-09-05T04:35:37.727Z,3.90
2022-09-05T04:38:18.682Z,4.15
2022-09-05T04:41:01.914Z,3.83
2022-09-05T04:43:39.157Z,4.13
2022-09-05T04:46:24.655Z,3.50
2022-09-05T04:48:59.231Z,3.97
2022-09-05T04:52:00.351Z,3.70
2022-09-05T04:54:39.696Z,4.25
2022-09-05T04:57:27.899Z,4.07
2022-09-05T05:04:19.098Z,4.32
2022-09-05T05:06:10.664Z,4.30
2022-09-05T05:06:13.898Z,3.65
2022-09-05T05:08:49.800Z,4.25
2022-09-05T05:17:22.320Z,4.15
2022-09-05T05:18:09.598Z,3.42
2022-09-05T05:18:10.905Z,3.97
2022-09-05T05:20:41.279Z,3.50
2022-09-05T05:23:07.825Z,4.15
2022-09-05T05:25:46.472Z,3.78
2022-09-05T05:28:23.999Z,2.95
2022-09-05T05:31:01.821Z,3.13
2022-09-05T05:33:36.968Z,4.00
2022-09-05T05:36:10.620Z,3.55
2022-09-05T05:38:48.328Z,3.50
2022-09-05T05:41:23.435Z,3.40
2022-09-05T05:43:54.832Z,3.70
2022-09-05T05:46:36.727Z,3.60
2022-09-05T05:49:12.633Z,3.20
2022-09-05T05:52:01.121Z,3.50
2022-09-05T05:54:43.614Z,2.97
2022-09-05T05:57:28.941Z,2.97
2022-09-05T06:00:14.837Z,3.10
2022-09-05T06:03:25.377Z,2.85
2022-09-05T06:06:11.321Z,3.03
2022-09-05T06:12:29.418Z,2.80
2022-09-05T06:15:05.773Z,2.65
2022-09-05T06:15:34.236Z,2.55
2022-09-05T06:18:24.240Z,2.53
2022-09-05T06:22:06.538Z,2.25
2022-09-05T06:24:34.912Z,2.35
2022-09-05T06:27:17.205Z,2.08
2022-09-05T06:30:00.171Z,2.08
2022-09-05T06:32:36.714Z,2.00
2022-09-05T06:35:29.355Z,2.30
2022-09-05T06:38:10.934Z,2.00
2022-09-05T06:40:44.655Z,1.98
2022-09-05T06:43:34.069Z,1.92
2022-09-05T06:46:09.625Z,2.00
2022-09-05T06:49:30.479Z,2.28
2022-09-05T06:51:49.262Z,1.83
2022-09-05T06:55:07.025Z,2.00
2022-09-05T06:57:47.286Z,2.00
2022-09-05T07:00:23.776Z,1.92
2022-09-05T07:03:03.741Z,2.22
2022-09-05T07:05:44.732Z,1.70
2022-09-05T07:08:35.630Z,1.80
2022-09-05T07:11:15.913Z,1.65
2022-09-05T07:13:57.971Z,2.70
2022-09-05T07:16:41.828Z,1.83
2022-09-05T07:19:25.904Z,1.67
2022-09-05T07:22:29.572Z,1.80
2022-09-05T07:24:58.721Z,1.73
2022-09-05T07:27:41.970Z,1.67
2022-09-05T07:30:31.842Z,1.20
2022-09-05T07:33:04.864Z,1.60
2022-09-05T07:35:41.914Z,1.50
2022-09-05T07:38:17.140Z,1.58
2022-09-05T07:40:52.062Z,1.30
2022-09-05T07:43:30.609Z,1.77
2022-09-05T07:46:11.689Z,1.23
2022-09-05T07:48:44.543Z,1.50
2022-09-05T07:55:22.056Z,1.35
2022-09-05T07:57:00.667Z,1.23
2022-09-05T07:57:30.291Z,1.65
2022-09-05T08:00:26.023Z,1.45
2022-09-05T08:03:01.237Z,1.70
2022-09-05T08:05:34.819Z,1.60
2022-09-05T08:08:10.471Z,1.45
2022-09-05T08:11:25.668Z,1.25
2022-09-05T08:13:47.661Z,1.60
2022-09-05T08:16:22.253Z,1.35
2022-09-05T08:18:53.852Z,1.13
2022-09-05T08:21:27.176Z,1.30
2022-09-05T08:24:13.828Z,1.30
2022-09-05T08:26:48.058Z,1.42
2022-09-05T08:31:54.345Z,1.55
2022-09-05T08:34:44.856Z,1.20
2022-09-05T08:37:21.679Z,1.30
2022-09-05T08:39:58.312Z,1.52
2022-09-05T08:43:40.856Z,1.42
2022-09-05T08:46:46.105Z,1.23
2022-09-05T08:48:49.043Z,1.60
2022-09-05T08:51:54.335Z,1.70
2022-09-05T08:54:35.243Z,1.30
2022-09-05T08:57:08.883Z,1.10
2022-09-05T09:03:09.041Z,1.35
2022-09-05T09:06:13.327Z,1.27
2022-09-05T09:09:07.785Z,1.13
2022-09-05T09:11:41.335Z,1.50
2022-09-05T09:14:35.470Z,1.35
2022-09-05T09:19:52.855Z,1.50
2022-09-05T09:22:33.180Z,1.30
2022-09-05T09:25:14.887Z,1.15
2022-09-05T09:28:46.710Z,1.40
2022-09-05T09:30:56.053Z,1.45
2022-09-05T09:33:32.969Z,1.10
2022-09-05T09:36:11.553Z,1.10
2022-09-05T09:38:48.640Z,1.15
2022-09-05T09:41:36.720Z,1.27
2022-09-05T09:44:55.541Z,1.58
2022-09-05T09:47:42.648Z,1.00
2022-09-05T09:50:26.094Z,1.25
2022-09-05T09:53:17.855Z,1.10
2022-09-05T09:56:14.954Z,1.17
2022-09-05T09:59:07.429Z,0.90
2022-09-05T10:01:53.242Z,0.88
2022-09-05T10:10:38.700Z,0.93
2022-09-05T10:10:52.606Z,1.00
2022-09-05T10:14:42.148Z,1.48
2022-09-05T10:17:50.986Z,1.33
2022-09-05T10:20:49.728Z,0.90
2022-09-05T10:23:52.952Z,0.80
2022-09-05T10:26:38.216Z,1.00
2022-09-05T10:29:37.141Z,0.90
2022-09-05T10:35:08.727Z,1.02
2022-09-05T10:35:15.101Z,0.70
2022-09-05T10:38:07.769Z,1.23
2022-09-05T10:41:05.816Z,1.20
2022-09-05T10:43:33.889Z,0.80
2022-09-05T10:46:16.997Z,1.02
2022-09-05T10:48:56.623Z,0.80
2022-09-05T10:51:37.118Z,0.80
2022-09-05T10:54:18.688Z,1.00
2022-09-05T10:56:50.415Z,0.82
2022-09-05T11:01:48.593Z,0.90
2022-09-05T11:02:34.063Z,0.80
2022-09-05T11:05:10.799Z,0.70
2022-09-05T11:07:45.370Z,0.63
2022-09-05T11:10:21.112Z,0.60
2022-09-05T11:12:58.351Z,0.82
2022-09-05T11:15:34.161Z,0.90
2022-09-05T11:18:06.301Z,0.50
2022-09-05T11:20:47.823Z,0.73
2022-09-05T11:23:20.804Z,0.40
2022-09-05T11:25:54.633Z,0.65
2022-09-05T11:28:29.332Z,0.90
2022-09-05T11:31:00.666Z,0.93
2022-09-05T11:39:45.691Z,0.80
2022-09-05T11:39:55.186Z,0.70
2022-09-05T11:42:54.282Z,0.73
2022-09-05T11:45:45.939Z,0.60
2022-09-05T11:48:31.013Z,0.40
2022-09-05T11:51:16.067Z,0.60
2022-09-05T11:54:07.068Z,0.40
2022-09-05T11:57:11.377Z,0.45
2022-09-05T12:03:57.459Z,0.65
2022-09-05T12:06:33.137Z,0.40
2022-09-05T12:09:08.184Z,0.43
2022-09-05T12:11:51.409Z,0.75
2022-09-05T12:14:36.509Z,0.50
2022-09-05T12:17:16.825Z,0.50
2022-09-05T12:19:50.644Z,0.32
2022-09-05T12:22:30.511Z,0.50
2022-09-05T12:29:27.408Z,0.60
2022-09-05T12:32:49.579Z,0.47
2022-09-05T12:40:45.119Z,0.77
2022-09-05T12:41:32.215Z,0.68
2022-09-05T12:41:37.661Z,0.82
2022-09-05T12:42:10.190Z,0.55
2022-09-05T12:44:19.285Z,0.50
2022-09-05T12:45:58.969Z,0.60
2022-09-05T12:48:39.129Z,0.63
2022-09-05T12:51:15.832Z,0.73
2022-09-05T12:54:24.529Z,0.70
2022-09-05T13:02:54.943Z,1.02
2022-09-05T13:03:08.783Z,0.32
2022-09-05T13:03:13.271Z,0.70
2022-09-05T13:05:52.712Z,0.40
2022-09-05T13:08:30.397Z,0.55
2022-09-05T13:14:49.645Z,0.50
2022-09-05T13:16:49.352Z,0.28
2022-09-05T13:19:37.407Z,0.30
2022-09-05T13:22:10.277Z,0.50
2022-09-05T13:24:48.099Z,0.73
2022-09-05T13:27:20.688Z,0.70
2022-09-05T13:31:23.254Z,0.55
2022-09-05T13:38:02.655Z,0.82
2022-09-05T13:38:05.343Z,0.50
2022-09-05T13:38:50.648Z,0.45
2022-09-05T13:41:29.893Z,0.30
2022-09-05T13:44:26.827Z,0.40
2022-09-05T13:46:58.858Z,0.65
2022-09-05T13:49:32.327Z,0.50
2022-09-05T13:52:18.260Z,0.60
2022-09-05T13:54:51.891Z,0.40
2022-09-05T13:57:37.922Z,0.52
2022-09-05T14:00:28.207Z,0.47
2022-09-05T14:03:38.816Z,0.68
2022-09-05T14:06:45.270Z,1.23
2022-09-05T14:09:42.353Z,0.32
2022-09-05T14:12:20.389Z,0.30
2022-09-05T14:15:14.172Z,0.35
2022-09-05T14:17:57.609Z,0.40
2022-09-05T14:20:43.027Z,0.40
2022-09-05T14:23:16.186Z,0.40
2022-09-05T14:25:47.479Z,0.40
2022-09-05T14:28:21.573Z,0.30
2022-09-05T14:32:18.838Z,0.40
2022-09-05T14:37:42.124Z,0.28
2022-09-05T14:37:50.391Z,0.40
2022-09-05T14:40:29.753Z,0.40
2022-09-05T14:43:28.045Z,0.30
2022-09-05T14:46:07.707Z,0.40
2022-09-05T14:49:01.757Z,0.50
2022-09-05T14:51:45.892Z,0.47
2022-09-05T15:02:38.120Z,0.30
2022-09-05T15:03:03.662Z,0.38
2022-09-05T15:05:44.729Z,0.30
2022-09-05T15:09:25.232Z,0.30
2022-09-05T15:12:24.884Z,0.30
2022-09-05T15:16:32.179Z,0.50
2022-09-05T15:19:05.040Z,4.45
2022-09-05T15:21:38.637Z,0.77
2022-09-05T15:24:22.957Z,0.40
2022-09-05T15:26:54.831Z,0.52
2022-09-05T15:29:27.326Z,0.40
2022-09-05T15:32:15.417Z,0.63
2022-09-05T15:34:48.554Z,0.57
2022-09-05T15:37:31.760Z,0.45
2022-09-05T15:40:07.725Z,0.65
2022-09-05T15:42:54.960Z,0.50
2022-09-05T15:45:28.309Z,0.30
2022-09-05T15:48:08.123Z,0.52
2022-09-05T15:50:46.131Z,0.50
2022-09-05T15:53:18.013Z,0.30
2022-09-05T15:55:52.324Z,0.55
2022-09-05T15:58:53.490Z,0.60
2022-09-05T16:01:49.962Z,0.40
2022-09-05T16:10:27.772Z,0.60
2022-09-05T16:10:46.270Z,0.32
2022-09-05T16:10:48.736Z,0.20
2022-09-05T16:12:52.583Z,0.50
2022-09-05T16:19:58.176Z,0.40
2022-09-05T16:23:29.698Z,0.30
2022-09-05T16:23:30.084Z,0.30
2022-09-05T16:24:09.674Z,0.50
2022-09-05T16:26:45.987Z,0.45
2022-09-05T16:29:26.106Z,0.40
2022-09-05T16:32:09.409Z,0.55
2022-09-05T16:34:45.949Z,0.57
2022-09-05T16:37:17.185Z,0.45
2022-09-05T16:39:52.204Z,0.50
2022-09-05T16:42:47.044Z,0.40
2022-09-05T16:45:25.731Z,0.57
2022-09-05T16:47:59.844Z,0.40
2022-09-05T16:50:36.860Z,0.63
2022-09-05T16:53:30.749Z,0.75
2022-09-05T16:56:06.118Z,0.50
2022-09-05T16:58:42.750Z,1.05
2022-09-05T17:01:19.890Z,0.43
2022-09-05T17:03:58.701Z,0.80
2022-09-05T17:06:34.368Z,1.05
2022-09-05T17:09:13.469Z,0.77
2022-09-05T17:12:00.055Z,0.80
2022-09-05T17:14:36.308Z,0.50
2022-09-05T17:17:19.701Z,1.42
2022-09-05T17:20:06.430Z,0.40
2022-09-05T17:25:11.047Z,0.60
2022-09-05T17:29:23.805Z,0.63
2022-09-05T17:29:37.954Z,0.50
2022-09-05T17:31:57.877Z,0.50
2022-09-05T17:34:35.088Z,0.50
2022-09-05T17:37:19.620Z,0.47
2022-09-05T17:39:55.164Z,0.55
2022-09-05T17:42:34.440Z,0.98
2022-09-05T17:45:15.638Z,1.10
2022-09-05T17:47:51.244Z,0.80
2022-09-05T17:50:23.374Z,1.20
2022-09-05T17:53:25.363Z,0.68
2022-09-05T17:56:15.039Z,0.85
2022-09-05T17:59:00.321Z,0.80
2022-09-05T18:01:33.116Z,0.57
2022-09-05T18:04:16.268Z,0.87
2022-09-05T18:06:59.360Z,0.80
2022-09-05T18:10:00.548Z,1.55
2022-09-05T18:13:13.713Z,0.90
2022-09-05T18:16:04.515Z,0.80
2022-09-05T18:19:27.702Z,0.90
2022-09-05T18:21:48.434Z,1.52
2022-09-05T18:24:33.379Z,1.33
2022-09-05T18:27:43.724Z,0.98
2022-09-05T18:30:09.045Z,1.15
2022-09-05T18:32:45.472Z,0.70
2022-09-05T18:35:37.571Z,0.65
2022-09-05T18:38:27.548Z,0.82
2022-09-05T18:41:18.314Z,0.80
2022-09-05T18:44:00.556Z,0.77
2022-09-05T18:46:47.726Z,0.93
2022-09-05T18:50:22.429Z,1.02
2022-09-05T18:52:23.804Z,0.77
2022-09-05T18:55:52.662Z,0.70
2022-09-05T18:57:57.923Z,0.73
2022-09-05T19:00:47.198Z,1.02
2022-09-05T19:03:19.919Z,0.90
2022-09-05T19:06:34.723Z,1.10
2022-09-05T19:08:54.744Z,1.10
2022-09-05T19:11:28.567Z,1.38
2022-09-05T19:14:18.254Z,1.20
2022-09-05T19:16:53.566Z,1.05
2022-09-05T19:19:27.797Z,1.05
2022-09-05T19:24:53.105Z,1.20
2022-09-05T19:30:40.712Z,1.00
2022-09-05T19:37:07.201Z,0.90
2022-09-05T19:37:09.793Z,1.20
2022-09-05T19:37:24.339Z,1.10
2022-09-05T19:41:33.200Z,1.00
2022-09-05T19:47:35.044Z,1.42
2022-09-05T19:47:51.744Z,1.13
2022-09-05T19:48:04.304Z,1.85
2022-09-05T19:50:27.385Z,1.23
2022-09-05T19:53:07.032Z,1.20
2022-09-05T19:55:39.529Z,1.02
2022-09-05T19:58:20.121Z,1.40
2022-09-05T20:01:01.507Z,1.33
2022-09-05T20:03:39.264Z,1.20
2022-09-05T20:06:29.164Z,1.50
2022-09-05T20:09:11.596Z,1.08
2022-09-05T20:11:45.567Z,1.15
2022-09-05T20:14:23.414Z,1.40
2022-09-05T20:16:55.400Z,1.27
2022-09-05T20:19:29.287Z,1.38
2022-09-05T20:24:51.879Z,1.13
2022-09-05T20:27:27.164Z,1.40
2022-09-05T20:30:02.619Z,1.33
2022-09-05T20:32:39.806Z,1.42
2022-09-05T20:39:26.487Z,1.45
2022-09-05T20:43:16.385Z,1.23
2022-09-05T20:43:21.591Z,1.30
2022-09-05T20:43:58.250Z,1.38
2022-09-05T20:52:57.187Z,1.67
2022-09-05T20:54:20.153Z,1.92
2022-09-05T20:54:28.648Z,1.38
2022-09-05T20:55:39.853Z,1.67
2022-09-05T20:58:12.766Z,1.30
2022-09-05T21:01:15.500Z,1.50
2022-09-05T21:03:45.516Z,1.20
2022-09-05T21:06:24.192Z,1.52
2022-09-05T21:08:56.071Z,1.38
2022-09-05T21:11:34.286Z,1.60
2022-09-05T21:14:06.246Z,1.80
2022-09-05T21:16:38.241Z,1.55
2022-09-05T21:19:23.873Z,1.10
2022-09-05T21:22:05.083Z,1.38
2022-09-05T21:24:35.501Z,1.27
2022-09-05T21:27:19.669Z,1.65
2022-09-05T21:32:38.043Z,1.88
2022-09-05T21:35:33.863Z,1.55
2022-09-05T21:38:04.424Z,1.30
2022-09-05T21:40:34.910Z,1.75
2022-09-05T21:47:34.798Z,1.50
2022-09-05T21:47:48.625Z,1.90
2022-09-05T21:48:46.851Z,1.50
2022-09-05T21:51:25.095Z,1.60
2022-09-05T21:56:54.610Z,1.42
2022-09-05T21:59:20.446Z,1.75
2022-09-05T21:59:47.100Z,1.60
2022-09-05T22:02:18.114Z,1.67
2022-09-05T22:04:48.306Z,1.75
2022-09-05T22:07:32.955Z,1.92
2022-09-05T22:10:04.226Z,1.60
2022-09-05T22:12:39.077Z,1.77
2022-09-05T22:15:28.088Z,1.95
2022-09-05T22:18:27.046Z,1.98
2022-09-05T22:21:31.713Z,2.08
2022-09-05T22:23:48.988Z,1.70
2022-09-05T22:26:20.661Z,2.30
2022-09-05T22:28:51.479Z,2.25
2022-09-05T22:31:22.150Z,2.10
2022-09-05T22:33:53.090Z,1.80
2022-09-05T22:36:23.264Z,2.00
2022-09-05T22:38:56.213Z,1.90
2022-09-05T22:41:30.347Z,2.15
2022-09-05T22:44:01.298Z,1.85
2022-09-05T22:46:31.559Z,2.25
2022-09-05T22:49:01.930Z,2.08
2022-09-05T22:51:31.949Z,2.45
2022-09-05T22:54:04.564Z,1.92
2022-09-05T22:56:35.535Z,2.20
2022-09-05T22:59:06.108Z,2.05
2022-09-05T23:01:36.622Z,2.50
2022-09-05T23:04:07.125Z,2.33
2022-09-05T23:06:37.403Z,2.13
2022-09-05T23:09:10.125Z,2.35
2022-09-05T23:11:40.444Z,2.08
2022-09-05T23:14:10.648Z,2.28
2022-09-05T23:16:40.655Z,2.45
2022-09-05T23:19:10.668Z,2.20
2022-09-05T23:21:40.942Z,2.30
2022-09-05T23:24:13.897Z,2.00
2022-09-05T23:26:44.166Z,2.63
2022-09-05T23:29:14.400Z,2.13
2022-09-05T23:31:44.625Z,2.45
2022-09-05T23:34:14.840Z,2.35
2022-09-05T23:36:45.110Z,2.22
2022-09-05T23:39:17.917Z,2.50
2022-09-05T23:41:48.157Z,2.80
2022-09-05T23:44:18.379Z,2.60
2022-09-05T23:46:48.603Z,2.88
2022-09-05T23:49:18.852Z,2.35
2022-09-05T23:51:48.797Z,2.13
2022-09-05T23:54:21.621Z,2.30
2022-09-05T23:56:51.924Z,2.60
2022-09-05T23:59:22.156Z,2.30
